Painesdale, Michigan
Current Conditions -  °F | °C
As of 2:53 AM on Monday 24 Nov 2014 (Local Time) from KCMX Reporting Station
Haze Haze  
Wind Chill: 39°   Ceiling: 400
Heat Index: 43°   Visibility: 0.75mi
Dew Point: 41°   Wind: 7mph
Humidity: 93%   Direction: 10°N
Pressure: 29.09"   Gusts: NA
Location:  47.04°N, 88.67°W
Report Text: KCMX 240753Z AUTO 01006KT 3/4SM BR OVC004 06/05 A2909 RMK AO2 RAE40 CIG 002V005 SLP857 P0001 T00610050
Loading
Personal Weather Stations






























Interactive Weather Map New forecast layout! Learn more

10-Day Weather Forecast

Advertisements
Track Severe Weather on mobile